Time;durP1;ratioP1;P1;durP2;ratioP2;P2;SDS_P1;SDS_P2;PMS_P1;PMS_P2;Temp;Humidity;BMP_temperature;BMP_pressure;BME280_temperature;BME280_humidity;BME280_pressure;Samples;Min_cycle;Max_cycle;Signal;HPM_P1;HPM_P2
2020/05/16 00:03:09;;;;;;;12.55;10.85;;;;;;;3.87;99.69141;95652.61;;;;
2020/05/16 00:04:52;;;;;;;12.55;10.85;;;;;;;3.87;99.69141;95652.61;;;;
2020/05/16 00:11:48;;;;;;;13.25;10.7;;;;;;;3.65;99.73535;95649.03;;;;
2020/05/16 00:13:18;;;;;;;13.25;10.7;;;;;;;3.65;99.73535;95649.03;;;;
2020/05/16 00:14:38;;;;;;;13.25;10.7;;;;;;;3.65;99.73535;95649.03;;;;
2020/05/16 00:15:44;;;;;;;13.25;10.7;;;;;;;3.65;99.73535;95649.03;;;;
2020/05/16 00:16:48;;;;;;;13.25;10.7;;;;;;;3.65;99.73535;95649.03;;;;
2020/05/16 00:17:49;;;;;;;13.25;10.7;;;;;;;3.65;99.73535;95649.03;;;;
2020/05/16 00:18:56;;;;;;;13.9;10.6;;;;;;;3.52;99.81934;95641.67;;;;
2020/05/16 00:19:57;;;;;;;13.9;10.6;;;;;;;3.52;99.81934;95641.67;;;;
2020/05/16 00:20:58;;;;;;;13.9;10.6;;;;;;;3.52;99.81934;95641.67;;;;
2020/05/16 00:21:58;;;;;;;13.9;10.6;;;;;;;3.52;99.81934;95641.67;;;;
2020/05/16 00:23:00;;;;;;;13.9;10.6;;;;;;;3.52;99.81934;95641.67;;;;
2020/05/16 00:24:00;;;;;;;13.9;10.6;;;;;;;3.52;99.81934;95641.67;;;;
2020/05/16 00:25:01;;;;;;;13.9;10.6;;;;;;;3.52;99.81934;95641.67;;;;
2020/05/16 00:26:02;;;;;;;13.9;10.6;;;;;;;3.52;99.81934;95641.67;;;;
2020/05/16 00:27:03;;;;;;;13.9;10.6;;;;;;;3.52;99.81934;95641.67;;;;
2020/05/16 00:28:16;;;;;;;13.9;10.6;;;;;;;3.52;99.81934;95641.67;;;;
2020/05/16 00:29:26;;;;;;;12.9;10.05;;;;;;;3.31;99.74023;95636.21;;;;
2020/05/16 00:30:27;;;;;;;12.9;10.05;;;;;;;3.31;99.74023;95636.21;;;;
2020/05/16 00:31:28;;;;;;;12.9;10.05;;;;;;;3.31;99.74023;95636.21;;;;
2020/05/16 00:32:30;;;;;;;12.9;10.05;;;;;;;3.31;99.74023;95636.21;;;;
2020/05/16 00:33:31;;;;;;;12.9;10.05;;;;;;;3.31;99.74023;95636.21;;;;
2020/05/16 00:34:33;;;;;;;12.9;10.05;;;;;;;3.31;99.74023;95636.21;;;;
2020/05/16 00:35:34;;;;;;;12.9;10.05;;;;;;;3.31;99.74023;95636.21;;;;
2020/05/16 00:36:35;;;;;;;12.9;10.05;;;;;;;3.31;99.74023;95636.21;;;;
2020/05/16 00:37:36;;;;;;;12.9;10.05;;;;;;;3.31;99.74023;95636.21;;;;
2020/05/16 00:38:47;;;;;;;12.9;10.05;;;;;;;3.31;99.74023;95636.21;;;;
2020/05/16 00:39:55;;;;;;;13.45;10.25;;;;;;;3.19;99.80859;95631.42;;;;
2020/05/16 00:41:04;;;;;;;13.45;10.25;;;;;;;3.19;99.80859;95631.42;;;;
2020/05/16 00:42:05;;;;;;;13.45;10.25;;;;;;;3.19;99.80859;95631.42;;;;
2020/05/16 00:43:15;;;;;;;13.45;10.25;;;;;;;3.19;99.80859;95631.42;;;;
2020/05/16 00:44:22;;;;;;;13.45;10.25;;;;;;;3.19;99.80859;95631.42;;;;
2020/05/16 00:45:28;;;;;;;13.45;10.25;;;;;;;3.19;99.80859;95631.42;;;;
2020/05/16 00:46:58;;;;;;;13.45;10.25;;;;;;;3.19;99.80859;95631.42;;;;
2020/05/16 00:48:06;;;;;;;13.45;10.25;;;;;;;3.19;99.80859;95631.42;;;;
2020/05/16 00:49:14;;;;;;;13.45;10.25;;;;;;;3.19;99.80859;95631.42;;;;
2020/05/16 00:50:22;;;;;;;12.3;9.949999;;;;;;;3.02;99.80859;95639.77;;;;
2020/05/16 00:51:28;;;;;;;12.3;9.949999;;;;;;;3.02;99.80859;95639.77;;;;
2020/05/16 00:52:37;;;;;;;12.3;9.949999;;;;;;;3.02;99.80859;95639.77;;;;
2020/05/16 00:53:39;;;;;;;12.3;9.949999;;;;;;;3.02;99.80859;95639.77;;;;
2020/05/16 00:54:43;;;;;;;12.3;9.949999;;;;;;;3.02;99.80859;95639.77;;;;
2020/05/16 00:55:48;;;;;;;12.3;9.949999;;;;;;;3.02;99.80859;95639.77;;;;
2020/05/16 00:56:53;;;;;;;12.3;9.949999;;;;;;;3.02;99.80859;95639.77;;;;
2020/05/16 00:57:56;;;;;;;12.3;9.949999;;;;;;;3.02;99.80859;95639.77;;;;
2020/05/16 00:59:06;;;;;;;12.3;9.949999;;;;;;;3.02;99.80859;95639.77;;;;
2020/05/16 01:00:08;;;;;;;12.3;9.949999;;;;;;;3.02;99.80859;95639.77;;;;
2020/05/16 01:01:13;;;;;;;11.9;10.25;;;;;;;2.93;99.84082;95643.52;;;;
2020/05/16 01:02:20;;;;;;;11.9;10.25;;;;;;;2.93;99.84082;95643.52;;;;
2020/05/16 01:03:25;;;;;;;11.9;10.25;;;;;;;2.93;99.84082;95643.52;;;;
2020/05/16 01:04:39;;;;;;;11.9;10.25;;;;;;;2.93;99.84082;95643.52;;;;
2020/05/16 01:05:52;;;;;;;11.9;10.25;;;;;;;2.93;99.84082;95643.52;;;;
2020/05/16 01:06:59;;;;;;;11.9;10.25;;;;;;;2.93;99.84082;95643.52;;;;
2020/05/16 01:08:03;;;;;;;11.9;10.25;;;;;;;2.93;99.84082;95643.52;;;;
2020/05/16 01:09:07;;;;;;;11.9;10.25;;;;;;;2.93;99.84082;95643.52;;;;
2020/05/16 01:10:24;;;;;;;11.9;10.25;;;;;;;2.93;99.84082;95643.52;;;;
2020/05/16 01:11:26;;;;;;;12.25;10.2;;;;;;;2.8;99.9248;95650.8;;;;
2020/05/16 01:12:29;;;;;;;12.25;10.2;;;;;;;2.8;99.9248;95650.8;;;;
2020/05/16 01:13:30;;;;;;;12.25;10.2;;;;;;;2.8;99.9248;95650.8;;;;
2020/05/16 01:14:33;;;;;;;12.25;10.2;;;;;;;2.8;99.9248;95650.8;;;;
2020/05/16 01:15:34;;;;;;;12.25;10.2;;;;;;;2.8;99.9248;95650.8;;;;
2020/05/16 01:16:38;;;;;;;12.25;10.2;;;;;;;2.8;99.9248;95650.8;;;;
2020/05/16 01:18:05;;;;;;;12.25;10.2;;;;;;;2.8;99.9248;95650.8;;;;
2020/05/16 01:19:27;;;;;;;12.25;10.2;;;;;;;2.8;99.9248;95650.8;;;;
2020/05/16 01:20:34;;;;;;;12.25;10.2;;;;;;;2.8;99.9248;95650.8;;;;
2020/05/16 01:21:39;;;;;;;12.25;10.2;;;;;;;2.8;99.9248;95650.8;;;;
2020/05/16 01:23:15;;;;;;;12.45;9.800001;;;;;;;2.83;99.96289;95651.34;;;;
2020/05/16 01:24:18;;;;;;;12.45;9.800001;;;;;;;2.83;99.96289;95651.34;;;;
2020/05/16 01:25:29;;;;;;;12.45;9.800001;;;;;;;2.83;99.96289;95651.34;;;;
2020/05/16 01:26:34;;;;;;;12.45;9.800001;;;;;;;2.83;99.96289;95651.34;;;;
2020/05/16 01:27:39;;;;;;;12.45;9.800001;;;;;;;2.83;99.96289;95651.34;;;;
2020/05/16 01:28:54;;;;;;;12.45;9.800001;;;;;;;2.83;99.96289;95651.34;;;;
2020/05/16 01:35:20;;;;;;;11.75;9.450001;;;;;;;2.74;99.85938;95652.42;;;;
2020/05/16 01:36:31;;;;;;;11.75;9.450001;;;;;;;2.74;99.85938;95652.42;;;;
2020/05/16 01:37:39;;;;;;;11.75;9.450001;;;;;;;2.74;99.85938;95652.42;;;;
2020/05/16 01:38:53;;;;;;;11.75;9.450001;;;;;;;2.74;99.85938;95652.42;;;;
2020/05/16 01:40:00;;;;;;;11.75;9.450001;;;;;;;2.74;99.85938;95652.42;;;;
2020/05/16 01:41:13;;;;;;;11.75;9.450001;;;;;;;2.74;99.85938;95652.42;;;;
2020/05/16 01:42:38;;;;;;;11.75;9.450001;;;;;;;2.74;99.85938;95652.42;;;;
2020/05/16 01:44:03;;;;;;;10.3;8.9;;;;;;;2.67;99.86328;95643.48;;;;
2020/05/16 01:45:20;;;;;;;10.3;8.9;;;;;;;2.67;99.86328;95643.48;;;;
2020/05/16 01:46:40;;;;;;;10.3;8.9;;;;;;;2.67;99.86328;95643.48;;;;
2020/05/16 01:55:06;;;;;;;11.9;8.700001;;;;;;;2.5;99.82422;95637.02;;;;
2020/05/16 01:56:19;;;;;;;11.9;8.700001;;;;;;;2.5;99.82422;95637.02;;;;
2020/05/16 01:57:27;;;;;;;11.9;8.700001;;;;;;;2.5;99.82422;95637.02;;;;
2020/05/16 01:58:33;;;;;;;11.9;8.700001;;;;;;;2.5;99.82422;95637.02;;;;
2020/05/16 01:59:39;;;;;;;11.9;8.700001;;;;;;;2.5;99.82422;95637.02;;;;
2020/05/16 02:00:42;;;;;;;11.9;8.700001;;;;;;;2.5;99.82422;95637.02;;;;
2020/05/16 02:02:22;;;;;;;11.9;8.700001;;;;;;;2.5;99.82422;95637.02;;;;
2020/05/16 02:03:28;;;;;;;11.9;8.700001;;;;;;;2.5;99.82422;95637.02;;;;
2020/05/16 02:04:39;;;;;;;12.6;9.15;;;;;;;2.37;99.83496;95620.82;;;;
2020/05/16 02:05:47;;;;;;;12.6;9.15;;;;;;;2.37;99.83496;95620.82;;;;
2020/05/16 02:07:15;;;;;;;12.6;9.15;;;;;;;2.37;99.83496;95620.82;;;;
2020/05/16 02:08:35;;;;;;;12.6;9.15;;;;;;;2.37;99.83496;95620.82;;;;
2020/05/16 02:09:48;;;;;;;12.6;9.15;;;;;;;2.37;99.83496;95620.82;;;;
2020/05/16 02:12:00;;;;;;;12.6;9.15;;;;;;;2.37;99.83496;95620.82;;;;
2020/05/16 02:18:28;;;;;;;11.85;9.099998;;;;;;;2.19;99.81445;95622.03;;;;
2020/05/16 02:19:54;;;;;;;11.85;9.099998;;;;;;;2.19;99.81445;95622.03;;;;
2020/05/16 02:31:31;;;;;;;11.8;9.15;;;;;;;2.12;100;95624.24;;;;
2020/05/16 02:32:39;;;;;;;11.8;9.15;;;;;;;2.12;100;95624.24;;;;
2020/05/16 02:33:45;;;;;;;11.8;9.15;;;;;;;2.12;100;95624.24;;;;
2020/05/16 02:34:46;;;;;;;11.8;9.15;;;;;;;2.12;100;95624.24;;;;
2020/05/16 02:35:47;;;;;;;11.8;9.15;;;;;;;2.12;100;95624.24;;;;
2020/05/16 02:36:47;;;;;;;14;9.149999;;;;;;;2.02;100;95626.7;;;;
2020/05/16 02:37:48;;;;;;;14;9.149999;;;;;;;2.02;100;95626.7;;;;
2020/05/16 02:38:56;;;;;;;14;9.149999;;;;;;;2.02;100;95626.7;;;;
2020/05/16 02:40:14;;;;;;;14;9.149999;;;;;;;2.02;100;95626.7;;;;
2020/05/16 02:41:29;;;;;;;14;9.149999;;;;;;;2.02;100;95626.7;;;;
2020/05/16 02:42:39;;;;;;;14;9.149999;;;;;;;2.02;100;95626.7;;;;
2020/05/16 02:43:49;;;;;;;14;9.149999;;;;;;;2.02;100;95626.7;;;;
2020/05/16 02:45:09;;;;;;;14;9.149999;;;;;;;2.02;100;95626.7;;;;
2020/05/16 02:46:27;;;;;;;14;9.149999;;;;;;;2.02;100;95626.7;;;;
2020/05/16 02:48:08;;;;;;;12.55;9;;;;;;;2;100;95637.6;;;;
2020/05/16 02:49:16;;;;;;;12.55;9;;;;;;;2;100;95637.6;;;;
2020/05/16 02:50:37;;;;;;;12.55;9;;;;;;;2;100;95637.6;;;;
2020/05/16 02:52:11;;;;;;;12.55;9;;;;;;;2;100;95637.6;;;;
2020/05/16 02:58:37;;;;;;;11.05;8.050001;;;;;;;1.86;99.91504;95643.59;;;;
2020/05/16 02:59:46;;;;;;;11.05;8.050001;;;;;;;1.86;99.91504;95643.59;;;;
2020/05/16 03:11:20;;;;;;;11.05;8.050001;;;;;;;1.86;99.91504;95643.59;;;;
2020/05/16 03:12:30;;;;;;;11.05;8.050001;;;;;;;1.86;99.91504;95643.59;;;;
2020/05/16 03:13:45;;;;;;;11.05;8.050001;;;;;;;1.86;99.91504;95643.59;;;;
2020/05/16 03:14:55;;;;;;;11.05;8.050001;;;;;;;1.86;99.91504;95643.59;;;;
2020/05/16 03:16:19;;;;;;;11.05;8.050001;;;;;;;1.86;99.91504;95643.59;;;;
2020/05/16 03:17:28;;;;;;;11.05;8.050001;;;;;;;1.86;99.91504;95643.59;;;;
2020/05/16 03:18:36;;;;;;;11.05;8.050001;;;;;;;1.86;99.91504;95643.59;;;;
2020/05/16 03:19:44;;;;;;;10.85;8.549999;;;;;;;1.76;99.76563;95641.74;;;;
2020/05/16 03:20:54;;;;;;;10.85;8.549999;;;;;;;1.76;99.76563;95641.74;;;;
2020/05/16 03:22:02;;;;;;;10.85;8.549999;;;;;;;1.76;99.76563;95641.74;;;;
2020/05/16 03:23:10;;;;;;;10.85;8.549999;;;;;;;1.76;99.76563;95641.74;;;;
2020/05/16 03:24:20;;;;;;;10.85;8.549999;;;;;;;1.76;99.76563;95641.74;;;;
2020/05/16 03:25:30;;;;;;;10.85;8.549999;;;;;;;1.76;99.76563;95641.74;;;;
2020/05/16 03:27:05;;;;;;;10.85;8.549999;;;;;;;1.76;99.76563;95641.74;;;;
2020/05/16 03:28:49;;;;;;;10.85;8.549999;;;;;;;1.76;99.76563;95641.74;;;;
2020/05/16 03:36:00;;;;;;;10.6;8.200002;;;;;;;1.59;99.91309;95635.65;;;;
2020/05/16 03:37:20;;;;;;;10.6;8.200002;;;;;;;1.59;99.91309;95635.65;;;;
2020/05/16 03:45:00;;;;;;;9.35;7.9;;;;;;;1.54;100;95635.76;;;;
2020/05/16 03:46:37;;;;;;;9.35;7.9;;;;;;;1.54;100;95635.76;;;;
2020/05/16 04:09:35;;;;;;;10.55;8.299999;;;;;;;1.45;100;95665.22;;;;
2020/05/16 04:11:05;;;;;;;10.55;8.299999;;;;;;;1.45;100;95665.22;;;;
2020/05/16 04:12:59;;;;;;;11.1;8.150001;;;;;;;1.52;100;95670.59;;;;
2020/05/16 04:14:10;;;;;;;11.1;8.150001;;;;;;;1.52;100;95670.59;;;;
2020/05/16 04:20:26;;;;;;;11.1;8.150001;;;;;;;1.52;100;95670.59;;;;
2020/05/16 04:21:28;;;;;;;11.1;8.150001;;;;;;;1.52;100;95670.59;;;;
2020/05/16 04:22:28;;;;;;;8.75;7.700001;;;;;;;1.62;100;95669.89;;;;
2020/05/16 04:23:29;;;;;;;8.75;7.700001;;;;;;;1.62;100;95669.89;;;;
2020/05/16 04:24:30;;;;;;;8.75;7.700001;;;;;;;1.62;100;95669.89;;;;
2020/05/16 04:25:30;;;;;;;8.75;7.700001;;;;;;;1.62;100;95669.89;;;;
2020/05/16 04:26:33;;;;;;;8.75;7.700001;;;;;;;1.62;100;95669.89;;;;
2020/05/16 04:28:44;;;;;;;8.75;7.700001;;;;;;;1.62;100;95669.89;;;;
2020/05/16 04:34:58;;;;;;;10.2;8.25;;;;;;;1.9;100;95671.61;;;;
2020/05/16 04:35:58;;;;;;;10.2;8.25;;;;;;;1.9;100;95671.61;;;;
2020/05/16 04:36:59;;;;;;;10.2;8.25;;;;;;;1.9;100;95671.61;;;;
2020/05/16 04:38:00;;;;;;;10.2;8.25;;;;;;;1.9;100;95671.61;;;;
2020/05/16 04:39:01;;;;;;;10.2;8.25;;;;;;;1.9;100;95671.61;;;;
2020/05/16 04:40:04;;;;;;;10.2;8.25;;;;;;;1.9;100;95671.61;;;;
2020/05/16 04:41:06;;;;;;;10.2;8.25;;;;;;;1.9;100;95671.61;;;;
2020/05/16 04:42:07;;;;;;;10.2;8.25;;;;;;;1.9;100;95671.61;;;;
2020/05/16 04:43:07;;;;;;;10.2;8.25;;;;;;;1.9;100;95671.61;;;;
2020/05/16 04:44:09;;;;;;;10.6;8.849999;;;;;;;2.13;99.87402;95680.41;;;;
2020/05/16 04:45:10;;;;;;;10.6;8.849999;;;;;;;2.13;99.87402;95680.41;;;;
2020/05/16 04:46:11;;;;;;;10.6;8.849999;;;;;;;2.13;99.87402;95680.41;;;;
2020/05/16 04:47:11;;;;;;;10.6;8.849999;;;;;;;2.13;99.87402;95680.41;;;;
2020/05/16 04:48:12;;;;;;;10.6;8.849999;;;;;;;2.13;99.87402;95680.41;;;;
2020/05/16 04:49:12;;;;;;;10.6;8.849999;;;;;;;2.13;99.87402;95680.41;;;;
2020/05/16 04:50:12;;;;;;;10.6;8.849999;;;;;;;2.13;99.87402;95680.41;;;;
2020/05/16 04:51:13;;;;;;;10.6;8.849999;;;;;;;2.13;99.87402;95680.41;;;;
2020/05/16 04:52:16;;;;;;;10.6;8.849999;;;;;;;2.13;99.87402;95680.41;;;;
2020/05/16 04:53:16;;;;;;;10.6;8.849999;;;;;;;2.13;99.87402;95680.41;;;;
2020/05/16 04:54:17;;;;;;;13.35;9.549999;;;;;;;2.51;99.81738;95688.42;;;;
2020/05/16 04:55:17;;;;;;;13.35;9.549999;;;;;;;2.51;99.81738;95688.42;;;;
2020/05/16 04:56:18;;;;;;;13.35;9.549999;;;;;;;2.51;99.81738;95688.42;;;;
2020/05/16 04:57:19;;;;;;;13.35;9.549999;;;;;;;2.51;99.81738;95688.42;;;;
2020/05/16 04:58:19;;;;;;;13.35;9.549999;;;;;;;2.51;99.81738;95688.42;;;;
2020/05/16 04:59:20;;;;;;;13.35;9.549999;;;;;;;2.51;99.81738;95688.42;;;;
2020/05/16 05:00:20;;;;;;;13.35;9.549999;;;;;;;2.51;99.81738;95688.42;;;;
2020/05/16 05:01:21;;;;;;;13.35;9.549999;;;;;;;2.51;99.81738;95688.42;;;;
2020/05/16 05:02:24;;;;;;;13.35;9.549999;;;;;;;2.51;99.81738;95688.42;;;;
2020/05/16 05:03:30;;;;;;;13.35;9.549999;;;;;;;2.51;99.81738;95688.42;;;;
2020/05/16 05:09:51;;;;;;;12.7;8.35;;;;;;;2.9;99.66504;95687.86;;;;
2020/05/16 05:10:53;;;;;;;12.7;8.35;;;;;;;2.9;99.66504;95687.86;;;;
2020/05/16 05:22:40;;;;;;;10.4;8.499999;;;;;;;3.41;99.51172;95691.58;;;;
2020/05/16 05:36:50;;;;;;;13.2;9.950001;;;;;;;3.94;99.1543;95690.39;;;;
2020/05/16 05:38:05;;;;;;;23.65;17.1;;;;;;;4.6;99.06445;95700.47;;;;
2020/05/16 05:39:13;;;;;;;23.65;17.1;;;;;;;4.6;99.06445;95700.47;;;;
2020/05/16 05:40:23;;;;;;;23.65;17.1;;;;;;;4.6;99.06445;95700.47;;;;
2020/05/16 05:51:53;;;;;;;26.25;19.9;;;;;;;5.32;99.18652;95710;;;;
2020/05/16 05:53:01;;;;;;;26.25;19.9;;;;;;;5.32;99.18652;95710;;;;
2020/05/16 05:54:14;;;;;;;26.25;19.9;;;;;;;5.32;99.18652;95710;;;;
2020/05/16 05:55:16;;;;;;;26.25;19.9;;;;;;;5.32;99.18652;95710;;;;
2020/05/16 05:56:23;;;;;;;26.25;19.9;;;;;;;5.32;99.18652;95710;;;;
2020/05/16 05:58:38;;;;;;;26.25;19.9;;;;;;;5.32;99.18652;95710;;;;
2020/05/16 06:04:55;;;;;;;28.55;22.35;;;;;;;6.11;99.43359;95702.06;;;;
2020/05/16 06:05:58;;;;;;;28.55;22.35;;;;;;;6.11;99.43359;95702.06;;;;
2020/05/16 06:06:59;;;;;;;28.55;22.35;;;;;;;6.11;99.43359;95702.06;;;;
2020/05/16 06:08:00;;;;;;;28.55;22.35;;;;;;;6.11;99.43359;95702.06;;;;
2020/05/16 06:09:00;;;;;;;24.05;20.7;;;;;;;6.96;99.65723;95712.7;;;;
2020/05/16 06:10:00;;;;;;;24.05;20.7;;;;;;;6.96;99.65723;95712.7;;;;
2020/05/16 06:11:01;;;;;;;24.05;20.7;;;;;;;6.96;99.65723;95712.7;;;;
2020/05/16 06:12:01;;;;;;;24.05;20.7;;;;;;;6.96;99.65723;95712.7;;;;
2020/05/16 06:13:02;;;;;;;24.05;20.7;;;;;;;6.96;99.65723;95712.7;;;;
2020/05/16 06:14:08;;;;;;;24.05;20.7;;;;;;;6.96;99.65723;95712.7;;;;
2020/05/16 06:15:25;;;;;;;24.05;20.7;;;;;;;6.96;99.65723;95712.7;;;;
2020/05/16 06:27:36;;;;;;;21.15;18.85;;;;;;;7.87;99.2207;95705.61;;;;
2020/05/16 06:28:57;;;;;;;21.15;18.85;;;;;;;7.87;99.2207;95705.61;;;;
2020/05/16 06:30:02;;;;;;;17.9;16;;;;;;;8.63;98.95898;95711.24;;;;
2020/05/16 06:31:11;;;;;;;17.9;16;;;;;;;8.63;98.95898;95711.24;;;;
2020/05/16 06:37:32;;;;;;;17.9;16;;;;;;;8.63;98.95898;95711.24;;;;
2020/05/16 06:38:41;;;;;;;17.9;16;;;;;;;8.63;98.95898;95711.24;;;;
2020/05/16 06:39:48;;;;;;;17.9;16;;;;;;;8.63;98.95898;95711.24;;;;
2020/05/16 06:40:58;;;;;;;13.5;12.15;;;;;;;10.33;97.47656;95708.12;;;;
2020/05/16 06:42:08;;;;;;;13.5;12.15;;;;;;;10.33;97.47656;95708.12;;;;
2020/05/16 06:43:15;;;;;;;13.5;12.15;;;;;;;10.33;97.47656;95708.12;;;;
2020/05/16 06:44:25;;;;;;;13.5;12.15;;;;;;;10.33;97.47656;95708.12;;;;
2020/05/16 06:47:06;;;;;;;13.5;12.15;;;;;;;10.33;97.47656;95708.12;;;;
2020/05/16 06:48:15;;;;;;;13.5;12.15;;;;;;;10.33;97.47656;95708.12;;;;
2020/05/16 06:49:29;;;;;;;13.5;12.15;;;;;;;10.33;97.47656;95708.12;;;;
2020/05/16 06:50:46;;;;;;;13.5;12.15;;;;;;;10.33;97.47656;95708.12;;;;
2020/05/16 06:52:49;;;;;;;9.100001;8.299999;;;;;;;12.43;94.71973;95713.51;;;;
2020/05/16 07:19:50;;;;;;;5.85;5.3;;;;;;;15.37;90.13281;95720.87;;;;
2020/05/16 07:21:01;;;;;;;5.85;5.3;;;;;;;15.37;90.13281;95720.87;;;;
2020/05/16 07:23:21;;;;;;;5.85;5.3;;;;;;;15.37;90.13281;95720.87;;;;
2020/05/16 07:24:28;;;;;;;6;5.45;;;;;;;16.54;86.66699;95716.19;;;;
2020/05/16 07:26:27;;;;;;;6;5.45;;;;;;;16.54;86.66699;95716.19;;;;
2020/05/16 07:27:42;;;;;;;6;5.45;;;;;;;16.54;86.66699;95716.19;;;;
2020/05/16 07:39:51;;;;;;;6.299999;5.799999;;;;;;;17.33;84.55859;95724.24;;;;
2020/05/16 07:41:22;;;;;;;6.299999;5.799999;;;;;;;17.33;84.55859;95724.24;;;;
2020/05/16 07:42:32;;;;;;;6.299999;5.799999;;;;;;;17.33;84.55859;95724.24;;;;
2020/05/16 07:49:22;;;;;;;6.349999;5.849999;;;;;;;17.74;82.5957;95724.67;;;;
2020/05/16 07:50:34;;;;;;;6.349999;5.849999;;;;;;;17.74;82.5957;95724.67;;;;
2020/05/16 07:51:57;;;;;;;6.349999;5.849999;;;;;;;17.74;82.5957;95724.67;;;;
2020/05/16 07:53:08;;;;;;;6.349999;5.849999;;;;;;;17.74;82.5957;95724.67;;;;
2020/05/16 07:54:32;;;;;;;6.349999;5.849999;;;;;;;17.74;82.5957;95724.67;;;;
2020/05/16 07:55:47;;;;;;;6.5;6;;;;;;;18.25;80.10449;95719.16;;;;
2020/05/16 07:56:54;;;;;;;6.5;6;;;;;;;18.25;80.10449;95719.16;;;;
2020/05/16 07:58:03;;;;;;;6.5;6;;;;;;;18.25;80.10449;95719.16;;;;
2020/05/16 07:59:12;;;;;;;6.5;6;;;;;;;18.25;80.10449;95719.16;;;;
2020/05/16 08:15:47;;;;;;;6.349999;5.849999;;;;;;;18.94;78.04004;95732.5;;;;
2020/05/16 08:16:57;;;;;;;6.349999;5.849999;;;;;;;18.94;78.04004;95732.5;;;;
2020/05/16 08:18:08;;;;;;;6.349999;5.849999;;;;;;;18.94;78.04004;95732.5;;;;
2020/05/16 08:19:18;;;;;;;6.349999;5.849999;;;;;;;18.94;78.04004;95732.5;;;;
2020/05/16 08:20:25;;;;;;;6.349999;5.849999;;;;;;;18.94;78.04004;95732.5;;;;
2020/05/16 08:21:39;;;;;;;6.349999;5.849999;;;;;;;18.94;78.04004;95732.5;;;;
2020/05/16 08:22:47;;;;;;;6.349999;5.849999;;;;;;;18.94;78.04004;95732.5;;;;
2020/05/16 08:34:24;;;;;;;30.6;13.25;;;;;;;19.56;74.77637;95729.33;;;;
2020/05/16 08:35:35;;;;;;;30.6;13.25;;;;;;;19.56;74.77637;95729.33;;;;
2020/05/16 08:36:44;;;;;;;30.6;13.25;;;;;;;19.56;74.77637;95729.33;;;;
2020/05/16 08:37:56;;;;;;;6.1;5.6;;;;;;;20.45;70.28223;95721.8;;;;
2020/05/16 08:39:07;;;;;;;6.1;5.6;;;;;;;20.45;70.28223;95721.8;;;;
2020/05/16 08:40:18;;;;;;;6.1;5.6;;;;;;;20.45;70.28223;95721.8;;;;
2020/05/16 08:41:22;;;;;;;6.1;5.6;;;;;;;20.45;70.28223;95721.8;;;;
2020/05/16 08:42:25;;;;;;;6.1;5.6;;;;;;;20.45;70.28223;95721.8;;;;
2020/05/16 08:43:27;;;;;;;6.1;5.6;;;;;;;20.45;70.28223;95721.8;;;;
2020/05/16 08:44:28;;;;;;;6.1;5.6;;;;;;;20.45;70.28223;95721.8;;;;
2020/05/16 08:45:28;;;;;;;6.1;5.6;;;;;;;20.45;70.28223;95721.8;;;;
2020/05/16 08:46:29;;;;;;;6.1;5.6;;;;;;;20.45;70.28223;95721.8;;;;
2020/05/16 08:47:29;;;;;;;5.7;5.2;;;;;;;23.82;63.05273;95726.95;;;;
2020/05/16 08:48:30;;;;;;;5.7;5.2;;;;;;;23.82;63.05273;95726.95;;;;
2020/05/16 08:49:30;;;;;;;5.7;5.2;;;;;;;23.82;63.05273;95726.95;;;;
2020/05/16 08:50:31;;;;;;;5.7;5.2;;;;;;;23.82;63.05273;95726.95;;;;
2020/05/16 08:56:45;;;;;;;5.7;5.2;;;;;;;23.82;63.05273;95726.95;;;;
2020/05/16 08:59:44;;;;;;;6.500001;5.2;;;;;;;25.14;58.51758;95730.06;;;;
2020/05/16 09:07:34;;;;;;;6.500001;5.2;;;;;;;25.14;58.51758;95730.06;;;;
2020/05/16 09:13:24;;;;;;;5.1;4.7;;;;;;;26.3;54.54395;95714.97;;;;
2020/05/16 09:21:53;;;;;;;4.8;4.4;;;;;;;27.59;50.2207;95706.5;;;;
2020/05/16 09:31:04;;;;;;;4.900001;4.5;;;;;;;28.58;46.49023;95705.22;;;;
2020/05/16 09:33:19;;;;;;;4.900001;4.5;;;;;;;28.58;46.49023;95705.22;;;;
2020/05/16 09:41:03;;;;;;;5.1;4.6;;;;;;;28.65;43.94531;95709.23;;;;
2020/05/16 09:50:04;;;;;;;5.1;4.6;;;;;;;28.65;43.94531;95709.23;;;;
2020/05/16 09:59:13;;;;;;;4.75;4.45;;;;;;;28.89;42.5166;95728.41;;;;
2020/05/16 10:01:50;;;;;;;5.049999;4.550001;;;;;;;29.86;39.98828;95696.11;;;;
2020/05/16 10:09:07;;;;;;;5.049999;4.550001;;;;;;;29.86;39.98828;95696.11;;;;
2020/05/16 10:17:07;;;;;;;4.699999;4.3;;;;;;;31.31;37.71387;95706.75;;;;
2020/05/16 10:26:21;;;;;;;4.8;4.4;;;;;;;30.37;37.76074;95698.16;;;;
2020/05/16 10:35:45;;;;;;;5.6;4.9;;;;;;;30.54;36.70996;95696.11;;;;
2020/05/16 10:43:10;;;;;;;5.6;4.9;;;;;;;30.54;36.70996;95696.11;;;;
2020/05/16 10:50:19;;;;;;;5.2;4.8;;;;;;;28.87;36.83496;95689.98;;;;
2020/05/16 10:55:16;;;;;;;4.599999;4.2;;;;;;;28.01;37.6543;95671.19;;;;
2020/05/16 11:05:06;;;;;;;5.05;4.5;;;;;;;28.66;36.44727;95665.81;;;;
2020/05/16 11:14:29;;;;;;;5.05;4.5;;;;;;;28.66;36.44727;95665.81;;;;
2020/05/16 11:23:54;;;;;;;4.7;4.3;;;;;;;28.53;35.96289;95665.51;;;;
2020/05/16 11:28:56;;;;;;;4.75;4.400001;;;;;;;27.43;36.63965;95664.23;;;;
2020/05/16 11:34:53;;;;;;;4.75;4.400001;;;;;;;27.43;36.63965;95664.23;;;;
2020/05/16 11:40:08;;;;;;;4.4;4;;;;;;;26.61;36.41602;95638.22;;;;
2020/05/16 11:44:28;;;;;;;4.4;4;;;;;;;26.61;36.41602;95638.22;;;;
2020/05/16 11:52:31;;;;;;;4.400001;4;;;;;;;26.41;36.23145;95630.61;;;;
2020/05/16 11:57:07;;;;;;;4.400001;4;;;;;;;26.41;36.23145;95630.61;;;;
2020/05/16 12:06:33;;;;;;;4.6;4.199999;;;;;;;27.14;36.11133;95621.01;;;;
2020/05/16 12:15:55;;;;;;;4.65;4.25;;;;;;;27.65;35.92578;95629.66;;;;
2020/05/16 12:23:50;;;;;;;4.400001;4;;;;;;;28.43;35.3457;95613.68;;;;
2020/05/16 12:33:15;;;;;;;4.5;4.149999;;;;;;;28.73;32.81934;95596.15;;;;
2020/05/16 12:42:38;;;;;;;4.5;4.149999;;;;;;;28.73;32.81934;95596.15;;;;
2020/05/16 12:55:24;;;;;;;4.9;4.4;;;;;;;29.05;30.76367;95577.42;;;;
2020/05/16 13:04:49;;;;;;;4.649999;4.25;;;;;;;29.02;28.70508;95561.24;;;;
2020/05/16 13:14:12;;;;;;;4.75;4.35;;;;;;;28.77;30.2373;95558.59;;;;
2020/05/16 13:22:19;;;;;;;4.85;4.149999;;;;;;;29.09;29.95313;95547.57;;;;
2020/05/16 13:24:29;;;;;;;4.25;3.95;;;;;;;29.36;29.55176;95556.84;;;;
2020/05/16 13:30:30;;;;;;;4.349999;3.95;;;;;;;30.25;28.72559;95557.03;;;;
2020/05/16 13:39:54;;;;;;;3.8;3.5;;;;;;;32.41;26.77637;95539.42;;;;
2020/05/16 13:49:17;;;;;;;3.85;3.55;;;;;;;33.59;25.09668;95517.25;;;;
2020/05/16 14:32:51;;;;;;;4.3;4;;;;;;;31.15;25.33789;95503.59;;;;
2020/05/16 14:42:00;;;;;;;5;4.599999;;;;;;;31.11;24.99512;95505.89;;;;
2020/05/16 14:46:17;;;;;;;5.5;5.1;;;;;;;30.24;25.66211;95508.84;;;;
2020/05/16 14:55:30;;;;;;;5.45;4.95;;;;;;;29.27;26.7627;95501.29;;;;
2020/05/16 15:00:10;;;;;;;4.900001;4.5;;;;;;;28.94;27.19531;95491.83;;;;
2020/05/16 15:09:24;;;;;;;5.45;5.05;;;;;;;28.63;28.19434;95491.41;;;;
2020/05/16 15:18:48;;;;;;;5.649999;5.25;;;;;;;28.1;28.31836;95502.17;;;;
2020/05/16 15:24:36;;;;;;;5;4.699999;;;;;;;28.13;28.77148;95484.41;;;;
2020/05/16 15:31:46;;;;;;;4.85;4.45;;;;;;;28.11;28.95117;95470.86;;;;
2020/05/16 15:33:46;;;;;;;5.25;4.85;;;;;;;27.67;29.10352;95476.53;;;;
2020/05/16 15:38:47;;;;;;;4.8;4.45;;;;;;;26.6;30.04688;95489.78;;;;
2020/05/16 15:43:47;;;;;;;5.699999;5.2;;;;;;;25.78;30.66504;95480.39;;;;
2020/05/16 15:48:48;;;;;;;6;5.5;;;;;;;25.07;31.5918;95475.86;;;;
2020/05/16 15:53:48;;;;;;;5.5;5;;;;;;;24.43;32.41895;95465.98;;;;
2020/05/16 16:04:31;;;;;;;5.800001;5.3;;;;;;;23.58;34.04102;95474.52;;;;
2020/05/16 16:06:19;;;;;;;5.450001;4.95;;;;;;;23.33;34.66992;95476.33;;;;
2020/05/16 16:07:38;;;;;;;5.3;4.900001;;;;;;;23.1;35.23047;95478.76;;;;
2020/05/16 16:09:11;;;;;;;5.3;4.900001;;;;;;;23.1;35.23047;95478.76;;;;
2020/05/16 16:10:13;;;;;;;5.55;5.05;;;;;;;22.87;35.72461;95483.95;;;;
2020/05/16 16:11:14;;;;;;;5.55;5.05;;;;;;;22.87;35.72461;95483.95;;;;
2020/05/16 16:12:14;;;;;;;5.55;5.05;;;;;;;22.87;35.72461;95483.95;;;;
2020/05/16 16:13:15;;;;;;;5.649999;5.149999;;;;;;;22.61;35.9375;95479.13;;;;
2020/05/16 16:14:15;;;;;;;5.649999;5.149999;;;;;;;22.61;35.9375;95479.13;;;;
2020/05/16 16:15:15;;;;;;;5.750001;5.1;;;;;;;22.37;36.33984;95472.99;;;;
2020/05/16 16:16:16;;;;;;;5.750001;5.1;;;;;;;22.37;36.33984;95472.99;;;;
2020/05/16 16:17:16;;;;;;;5.750001;5.1;;;;;;;22.37;36.33984;95472.99;;;;
2020/05/16 16:18:17;;;;;;;5.55;5.1;;;;;;;22.13;36.94434;95468.63;;;;
2020/05/16 16:19:18;;;;;;;5.55;5.1;;;;;;;22.13;36.94434;95468.63;;;;
2020/05/16 16:20:19;;;;;;;5.099999;4.599999;;;;;;;21.91;37.40137;95463.95;;;;
2020/05/16 16:21:19;;;;;;;5.099999;4.599999;;;;;;;21.91;37.40137;95463.95;;;;
2020/05/16 16:22:20;;;;;;;5.099999;4.599999;;;;;;;21.91;37.40137;95463.95;;;;
2020/05/16 16:23:20;;;;;;;5.85;4.6;;;;;;;21.69;37.84961;95457.7;;;;
2020/05/16 16:24:21;;;;;;;5.85;4.6;;;;;;;21.69;37.84961;95457.7;;;;
2020/05/16 16:25:21;;;;;;;5.85;4.6;;;;;;;21.69;37.84961;95457.7;;;;
2020/05/16 16:26:22;;;;;;;5.65;5.149999;;;;;;;21.52;38.62207;95443.72;;;;
2020/05/16 16:27:23;;;;;;;5.65;5.149999;;;;;;;21.52;38.62207;95443.72;;;;
2020/05/16 16:28:24;;;;;;;5.5;5.1;;;;;;;21.33;38.9043;95441.71;;;;
2020/05/16 16:29:24;;;;;;;5.5;5.1;;;;;;;21.33;38.9043;95441.71;;;;
2020/05/16 16:30:24;;;;;;;5.5;5.1;;;;;;;21.33;38.9043;95441.71;;;;